sensor_id;sensor_type;location;lat;lon;timestamp;P1;durP1;ratioP1;P2;durP2;ratioP2
27163;SDS011;14685;50.618;7.024;2022-09-30T00:01:06;3.90;;;2.22;;
27163;SDS011;14685;50.618;7.024;2022-09-30T00:03:33;5.38;;;2.17;;
27163;SDS011;14685;50.618;7.024;2022-09-30T00:06:03;3.58;;;1.90;;
27163;SDS011;14685;50.618;7.024;2022-09-30T00:08:34;3.42;;;2.00;;
27163;SDS011;14685;50.618;7.024;2022-09-30T00:13:31;3.03;;;2.20;;
27163;SDS011;14685;50.618;7.024;2022-09-30T00:16:01;5.38;;;2.00;;
27163;SDS011;14685;50.618;7.024;2022-09-30T00:18:28;4.32;;;2.15;;
27163;SDS011;14685;50.618;7.024;2022-09-30T00:20:55;2.80;;;2.05;;
27163;SDS011;14685;50.618;7.024;2022-09-30T00:23:22;4.15;;;2.47;;
27163;SDS011;14685;50.618;7.024;2022-09-30T00:25:49;2.65;;;1.98;;
27163;SDS011;14685;50.618;7.024;2022-09-30T00:28:17;2.92;;;2.00;;
27163;SDS011;14685;50.618;7.024;2022-09-30T00:30:43;3.15;;;1.90;;
27163;SDS011;14685;50.618;7.024;2022-09-30T00:33:10;5.70;;;2.20;;
27163;SDS011;14685;50.618;7.024;2022-09-30T00:35:37;2.95;;;1.92;;
27163;SDS011;14685;50.618;7.024;2022-09-30T00:38:05;4.97;;;2.13;;
27163;SDS011;14685;50.618;7.024;2022-09-30T00:40:32;6.90;;;2.00;;
27163;SDS011;14685;50.618;7.024;2022-09-30T00:42:59;5.63;;;1.80;;
27163;SDS011;14685;50.618;7.024;2022-09-30T00:45:26;3.47;;;2.10;;
27163;SDS011;14685;50.618;7.024;2022-09-30T00:48:05;7.53;;;2.45;;
27163;SDS011;14685;50.618;7.024;2022-09-30T00:50:41;3.78;;;2.35;;
27163;SDS011;14685;50.618;7.024;2022-09-30T00:53:15;3.10;;;1.92;;
27163;SDS011;14685;50.618;7.024;2022-09-30T00:58:29;2.22;;;2.03;;
27163;SDS011;14685;50.618;7.024;2022-09-30T01:00:59;2.72;;;2.10;;
27163;SDS011;14685;50.618;7.024;2022-09-30T01:03:29;3.17;;;2.13;;
27163;SDS011;14685;50.618;7.024;2022-09-30T01:06:06;3.85;;;2.05;;
27163;SDS011;14685;50.618;7.024;2022-09-30T01:08:34;2.70;;;1.85;;
27163;SDS011;14685;50.618;7.024;2022-09-30T01:11:02;4.93;;;2.30;;
27163;SDS011;14685;50.618;7.024;2022-09-30T01:13:33;3.05;;;2.20;;
27163;SDS011;14685;50.618;7.024;2022-09-30T01:24:32;3.80;;;1.95;;
27163;SDS011;14685;50.618;7.024;2022-09-30T01:44:36;2.55;;;2.35;;
27163;SDS011;14685;50.618;7.024;2022-09-30T01:47:26;4.88;;;1.80;;
27163;SDS011;14685;50.618;7.024;2022-09-30T01:50:01;6.35;;;2.15;;
27163;SDS011;14685;50.618;7.024;2022-09-30T01:55:17;4.97;;;1.97;;
27163;SDS011;14685;50.618;7.024;2022-09-30T02:00:35;2.90;;;2.00;;
27163;SDS011;14685;50.618;7.024;2022-09-30T02:03:10;4.47;;;2.30;;
27163;SDS011;14685;50.618;7.024;2022-09-30T02:08:27;2.47;;;1.88;;
27163;SDS011;14685;50.618;7.024;2022-09-30T02:11:14;4.28;;;1.80;;
27163;SDS011;14685;50.618;7.024;2022-09-30T02:19:53;2.08;;;1.77;;
27163;SDS011;14685;50.618;7.024;2022-09-30T02:22:29;2.40;;;1.77;;
27163;SDS011;14685;50.618;7.024;2022-09-30T02:25:05;2.30;;;1.90;;
27163;SDS011;14685;50.618;7.024;2022-09-30T02:27:38;2.38;;;1.80;;
27163;SDS011;14685;50.618;7.024;2022-09-30T02:32:45;2.95;;;2.20;;
27163;SDS011;14685;50.618;7.024;2022-09-30T02:35:35;3.38;;;1.90;;
27163;SDS011;14685;50.618;7.024;2022-09-30T02:38:15;3.63;;;1.75;;
27163;SDS011;14685;50.618;7.024;2022-09-30T02:40:45;4.38;;;2.17;;
27163;SDS011;14685;50.618;7.024;2022-09-30T02:43:16;2.42;;;1.88;;
27163;SDS011;14685;50.618;7.024;2022-09-30T02:45:51;4.38;;;2.30;;
27163;SDS011;14685;50.618;7.024;2022-09-30T02:48:41;3.65;;;1.90;;
27163;SDS011;14685;50.618;7.024;2022-09-30T02:54:19;3.13;;;1.90;;
27163;SDS011;14685;50.618;7.024;2022-09-30T03:00:02;3.60;;;1.90;;
27163;SDS011;14685;50.618;7.024;2022-09-30T03:02:37;2.03;;;1.70;;
27163;SDS011;14685;50.618;7.024;2022-09-30T03:05:05;3.83;;;1.83;;
27163;SDS011;14685;50.618;7.024;2022-09-30T03:07:33;1.85;;;1.70;;
27163;SDS011;14685;50.618;7.024;2022-09-30T03:10:05;1.90;;;1.77;;
27163;SDS011;14685;50.618;7.024;2022-09-30T03:15:37;2.33;;;1.83;;
27163;SDS011;14685;50.618;7.024;2022-09-30T03:18:22;2.40;;;1.80;;
27163;SDS011;14685;50.618;7.024;2022-09-30T03:21:05;2.38;;;1.73;;
27163;SDS011;14685;50.618;7.024;2022-09-30T03:26:17;4.47;;;1.70;;
27163;SDS011;14685;50.618;7.024;2022-09-30T03:29:17;2.22;;;1.88;;
27163;SDS011;14685;50.618;7.024;2022-09-30T03:32:00;1.90;;;1.70;;
27163;SDS011;14685;50.618;7.024;2022-09-30T03:34:51;1.67;;;1.58;;
27163;SDS011;14685;50.618;7.024;2022-09-30T03:43:18;3.85;;;1.92;;
27163;SDS011;14685;50.618;7.024;2022-09-30T03:46:09;2.28;;;2.00;;
27163;SDS011;14685;50.618;7.024;2022-09-30T03:48:51;1.98;;;1.77;;
27163;SDS011;14685;50.618;7.024;2022-09-30T03:51:21;2.25;;;2.08;;
27163;SDS011;14685;50.618;7.024;2022-09-30T03:53:50;2.95;;;1.90;;
27163;SDS011;14685;50.618;7.024;2022-09-30T03:56:29;2.65;;;1.70;;
27163;SDS011;14685;50.618;7.024;2022-09-30T03:58:58;3.20;;;1.60;;
27163;SDS011;14685;50.618;7.024;2022-09-30T04:01:25;3.35;;;1.63;;
27163;SDS011;14685;50.618;7.024;2022-09-30T04:03:52;2.53;;;1.40;;
27163;SDS011;14685;50.618;7.024;2022-09-30T04:06:20;2.38;;;1.60;;
27163;SDS011;14685;50.618;7.024;2022-09-30T04:08:48;1.92;;;1.50;;
27163;SDS011;14685;50.618;7.024;2022-09-30T04:11:16;1.85;;;1.60;;
27163;SDS011;14685;50.618;7.024;2022-09-30T04:13:44;3.15;;;1.75;;
27163;SDS011;14685;50.618;7.024;2022-09-30T04:16:11;2.92;;;1.60;;
27163;SDS011;14685;50.618;7.024;2022-09-30T04:18:38;2.10;;;1.90;;
27163;SDS011;14685;50.618;7.024;2022-09-30T04:21:05;1.50;;;1.40;;
27163;SDS011;14685;50.618;7.024;2022-09-30T04:23:37;1.70;;;1.50;;
27163;SDS011;14685;50.618;7.024;2022-09-30T04:26:05;3.67;;;1.70;;
27163;SDS011;14685;50.618;7.024;2022-09-30T04:28:33;5.47;;;1.67;;
27163;SDS011;14685;50.618;7.024;2022-09-30T04:31:01;2.55;;;1.70;;
27163;SDS011;14685;50.618;7.024;2022-09-30T04:33:31;1.80;;;1.70;;
27163;SDS011;14685;50.618;7.024;2022-09-30T04:35:58;3.50;;;2.15;;
27163;SDS011;14685;50.618;7.024;2022-09-30T04:38:25;2.97;;;1.70;;
27163;SDS011;14685;50.618;7.024;2022-09-30T04:40:53;6.60;;;1.90;;
27163;SDS011;14685;50.618;7.024;2022-09-30T04:43:20;2.97;;;1.75;;
27163;SDS011;14685;50.618;7.024;2022-09-30T04:45:51;4.32;;;1.70;;
27163;SDS011;14685;50.618;7.024;2022-09-30T04:48:18;3.42;;;2.00;;
27163;SDS011;14685;50.618;7.024;2022-09-30T04:50:47;4.50;;;2.08;;
27163;SDS011;14685;50.618;7.024;2022-09-30T04:53:15;3.33;;;2.53;;
27163;SDS011;14685;50.618;7.024;2022-09-30T04:55:43;3.20;;;2.72;;
27163;SDS011;14685;50.618;7.024;2022-09-30T04:58:11;4.68;;;2.60;;
27163;SDS011;14685;50.618;7.024;2022-09-30T05:00:38;4.47;;;2.83;;
27163;SDS011;14685;50.618;7.024;2022-09-30T05:03:05;4.78;;;2.55;;
27163;SDS011;14685;50.618;7.024;2022-09-30T05:05:32;4.10;;;2.30;;
27163;SDS011;14685;50.618;7.024;2022-09-30T05:08:00;3.22;;;2.08;;
27163;SDS011;14685;50.618;7.024;2022-09-30T05:10:27;4.43;;;2.13;;
27163;SDS011;14685;50.618;7.024;2022-09-30T05:12:56;2.47;;;2.10;;
27163;SDS011;14685;50.618;7.024;2022-09-30T05:15:25;4.35;;;2.08;;
27163;SDS011;14685;50.618;7.024;2022-09-30T05:17:55;2.45;;;2.17;;
27163;SDS011;14685;50.618;7.024;2022-09-30T05:20:21;4.00;;;2.50;;
27163;SDS011;14685;50.618;7.024;2022-09-30T05:22:54;3.10;;;2.20;;
27163;SDS011;14685;50.618;7.024;2022-09-30T05:25:21;2.27;;;2.07;;
27163;SDS011;14685;50.618;7.024;2022-09-30T05:27:49;2.85;;;2.03;;
27163;SDS011;14685;50.618;7.024;2022-09-30T05:30:19;2.35;;;2.05;;
27163;SDS011;14685;50.618;7.024;2022-09-30T05:32:46;1.67;;;1.58;;
27163;SDS011;14685;50.618;7.024;2022-09-30T05:35:12;2.50;;;2.13;;
27163;SDS011;14685;50.618;7.024;2022-09-30T05:37:39;2.10;;;1.90;;
27163;SDS011;14685;50.618;7.024;2022-09-30T05:40:06;3.65;;;1.98;;
27163;SDS011;14685;50.618;7.024;2022-09-30T05:42:35;3.88;;;2.10;;
27163;SDS011;14685;50.618;7.024;2022-09-30T05:45:05;3.22;;;2.20;;
27163;SDS011;14685;50.618;7.024;2022-09-30T05:47:32;1.73;;;1.60;;
27163;SDS011;14685;50.618;7.024;2022-09-30T05:49:59;2.80;;;2.15;;
27163;SDS011;14685;50.618;7.024;2022-09-30T05:52:27;4.45;;;2.17;;
27163;SDS011;14685;50.618;7.024;2022-09-30T05:54:56;2.20;;;2.10;;
27163;SDS011;14685;50.618;7.024;2022-09-30T05:57:27;2.20;;;2.00;;
27163;SDS011;14685;50.618;7.024;2022-09-30T05:59:56;3.42;;;2.20;;
27163;SDS011;14685;50.618;7.024;2022-09-30T06:02:23;2.63;;;1.95;;
27163;SDS011;14685;50.618;7.024;2022-09-30T06:04:50;2.38;;;2.15;;
27163;SDS011;14685;50.618;7.024;2022-09-30T06:07:18;2.50;;;2.30;;
27163;SDS011;14685;50.618;7.024;2022-09-30T06:09:45;3.58;;;2.33;;
27163;SDS011;14685;50.618;7.024;2022-09-30T06:12:12;2.72;;;2.45;;
27163;SDS011;14685;50.618;7.024;2022-09-30T06:14:40;5.30;;;2.58;;
27163;SDS011;14685;50.618;7.024;2022-09-30T06:17:07;5.78;;;2.38;;
27163;SDS011;14685;50.618;7.024;2022-09-30T06:19:35;5.28;;;2.70;;
27163;SDS011;14685;50.618;7.024;2022-09-30T06:22:03;5.95;;;2.42;;
27163;SDS011;14685;50.618;7.024;2022-09-30T06:24:30;5.95;;;2.85;;
27163;SDS011;14685;50.618;7.024;2022-09-30T06:26:57;3.85;;;2.67;;
27163;SDS011;14685;50.618;7.024;2022-09-30T06:29:23;4.25;;;2.40;;
27163;SDS011;14685;50.618;7.024;2022-09-30T06:31:52;2.72;;;2.35;;
27163;SDS011;14685;50.618;7.024;2022-09-30T06:34:20;2.38;;;2.17;;
27163;SDS011;14685;50.618;7.024;2022-09-30T06:36:49;1.98;;;1.80;;
27163;SDS011;14685;50.618;7.024;2022-09-30T06:39:17;3.80;;;1.98;;
27163;SDS011;14685;50.618;7.024;2022-09-30T06:41:44;3.63;;;2.10;;
27163;SDS011;14685;50.618;7.024;2022-09-30T06:44:11;3.28;;;2.13;;
27163;SDS011;14685;50.618;7.024;2022-09-30T06:46:38;4.75;;;2.08;;
27163;SDS011;14685;50.618;7.024;2022-09-30T06:49:19;4.95;;;2.20;;
27163;SDS011;14685;50.618;7.024;2022-09-30T06:51:47;2.53;;;2.17;;
27163;SDS011;14685;50.618;7.024;2022-09-30T06:54:16;2.85;;;1.73;;
27163;SDS011;14685;50.618;7.024;2022-09-30T06:56:46;3.22;;;2.15;;
27163;SDS011;14685;50.618;7.024;2022-09-30T06:59:15;3.22;;;2.08;;
27163;SDS011;14685;50.618;7.024;2022-09-30T07:01:42;2.03;;;1.85;;
27163;SDS011;14685;50.618;7.024;2022-09-30T07:04:11;2.15;;;1.60;;
27163;SDS011;14685;50.618;7.024;2022-09-30T07:06:37;3.40;;;1.98;;
27163;SDS011;14685;50.618;7.024;2022-09-30T07:09:07;1.85;;;1.73;;
27163;SDS011;14685;50.618;7.024;2022-09-30T07:11:35;3.70;;;1.83;;
27163;SDS011;14685;50.618;7.024;2022-09-30T07:14:03;2.47;;;2.28;;
27163;SDS011;14685;50.618;7.024;2022-09-30T07:16:31;2.20;;;2.00;;
27163;SDS011;14685;50.618;7.024;2022-09-30T07:18:59;2.08;;;1.88;;
27163;SDS011;14685;50.618;7.024;2022-09-30T07:21:27;4.18;;;2.00;;
27163;SDS011;14685;50.618;7.024;2022-09-30T07:23:56;2.20;;;2.00;;
27163;SDS011;14685;50.618;7.024;2022-09-30T07:26:25;2.58;;;1.83;;
27163;SDS011;14685;50.618;7.024;2022-09-30T07:28:54;4.40;;;2.10;;
27163;SDS011;14685;50.618;7.024;2022-09-30T07:31:22;2.75;;;2.10;;
27163;SDS011;14685;50.618;7.024;2022-09-30T07:34:00;2.90;;;2.13;;
27163;SDS011;14685;50.618;7.024;2022-09-30T07:36:35;2.30;;;2.08;;
27163;SDS011;14685;50.618;7.024;2022-09-30T07:39:05;3.38;;;2.22;;
27163;SDS011;14685;50.618;7.024;2022-09-30T07:41:35;4.05;;;2.35;;
27163;SDS011;14685;50.618;7.024;2022-09-30T07:44:04;2.55;;;2.35;;
27163;SDS011;14685;50.618;7.024;2022-09-30T07:46:33;2.90;;;2.22;;
27163;SDS011;14685;50.618;7.024;2022-09-30T07:49:04;3.17;;;2.20;;
27163;SDS011;14685;50.618;7.024;2022-09-30T07:51:35;3.63;;;2.42;;
27163;SDS011;14685;50.618;7.024;2022-09-30T07:56:38;3.80;;;2.25;;
27163;SDS011;14685;50.618;7.024;2022-09-30T07:59:27;3.00;;;2.08;;
27163;SDS011;14685;50.618;7.024;2022-09-30T08:01:55;3.10;;;2.13;;
27163;SDS011;14685;50.618;7.024;2022-09-30T08:04:22;2.60;;;2.03;;
27163;SDS011;14685;50.618;7.024;2022-09-30T08:06:51;2.72;;;2.47;;
27163;SDS011;14685;50.618;7.024;2022-09-30T08:09:22;2.10;;;2.00;;
27163;SDS011;14685;50.618;7.024;2022-09-30T08:11:50;4.53;;;2.35;;
27163;SDS011;14685;50.618;7.024;2022-09-30T08:14:23;2.65;;;2.05;;
27163;SDS011;14685;50.618;7.024;2022-09-30T08:16:54;2.65;;;2.45;;
27163;SDS011;14685;50.618;7.024;2022-09-30T08:19:24;4.25;;;2.10;;
27163;SDS011;14685;50.618;7.024;2022-09-30T08:21:52;3.08;;;2.15;;
27163;SDS011;14685;50.618;7.024;2022-09-30T08:24:21;3.17;;;2.17;;
27163;SDS011;14685;50.618;7.024;2022-09-30T08:26:48;1.90;;;1.80;;
27163;SDS011;14685;50.618;7.024;2022-09-30T08:29:16;3.05;;;2.08;;
27163;SDS011;14685;50.618;7.024;2022-09-30T08:31:50;2.17;;;1.98;;
27163;SDS011;14685;50.618;7.024;2022-09-30T08:34:17;6.00;;;2.10;;
27163;SDS011;14685;50.618;7.024;2022-09-30T08:36:44;2.30;;;2.03;;
27163;SDS011;14685;50.618;7.024;2022-09-30T08:39:14;1.70;;;1.60;;
27163;SDS011;14685;50.618;7.024;2022-09-30T08:41:47;2.72;;;2.20;;
27163;SDS011;14685;50.618;7.024;2022-09-30T08:44:39;3.63;;;2.03;;
27163;SDS011;14685;50.618;7.024;2022-09-30T08:47:12;3.58;;;2.30;;
27163;SDS011;14685;50.618;7.024;2022-09-30T08:52:57;8.43;;;2.03;;
27163;SDS011;14685;50.618;7.024;2022-09-30T08:55:30;10.95;;;2.03;;
27163;SDS011;14685;50.618;7.024;2022-09-30T08:58:05;2.38;;;2.17;;
27163;SDS011;14685;50.618;7.024;2022-09-30T09:00:37;4.50;;;2.00;;
27163;SDS011;14685;50.618;7.024;2022-09-30T09:03:09;5.15;;;2.10;;
27163;SDS011;14685;50.618;7.024;2022-09-30T09:05:46;6.13;;;2.65;;
27163;SDS011;14685;50.618;7.024;2022-09-30T09:11:31;8.70;;;2.60;;
27163;SDS011;14685;50.618;7.024;2022-09-30T09:20:00;2.13;;;1.55;;
27163;SDS011;14685;50.618;7.024;2022-09-30T09:22:32;3.17;;;1.92;;
27163;SDS011;14685;50.618;7.024;2022-09-30T09:24:59;2.25;;;1.52;;
27163;SDS011;14685;50.618;7.024;2022-09-30T09:30:13;1.98;;;1.25;;
27163;SDS011;14685;50.618;7.024;2022-09-30T09:32:45;3.03;;;1.73;;
27163;SDS011;14685;50.618;7.024;2022-09-30T09:37:56;2.63;;;1.10;;
27163;SDS011;14685;50.618;7.024;2022-09-30T09:51:59;3.63;;;1.35;;
27163;SDS011;14685;50.618;7.024;2022-09-30T09:57:11;2.05;;;1.00;;
27163;SDS011;14685;50.618;7.024;2022-09-30T09:59:55;5.63;;;1.40;;
27163;SDS011;14685;50.618;7.024;2022-09-30T10:02:44;3.53;;;0.90;;
27163;SDS011;14685;50.618;7.024;2022-09-30T10:05:23;2.63;;;1.10;;
27163;SDS011;14685;50.618;7.024;2022-09-30T10:08:08;2.45;;;1.10;;
27163;SDS011;14685;50.618;7.024;2022-09-30T10:10:49;2.30;;;1.30;;
27163;SDS011;14685;50.618;7.024;2022-09-30T10:13:17;3.75;;;1.25;;
27163;SDS011;14685;50.618;7.024;2022-09-30T10:15:48;4.18;;;1.08;;
27163;SDS011;14685;50.618;7.024;2022-09-30T10:18:18;1.17;;;0.90;;
27163;SDS011;14685;50.618;7.024;2022-09-30T10:21:05;4.07;;;1.48;;
27163;SDS011;14685;50.618;7.024;2022-09-30T10:23:44;1.23;;;1.10;;
27163;SDS011;14685;50.618;7.024;2022-09-30T10:31:27;2.03;;;1.08;;
27163;SDS011;14685;50.618;7.024;2022-09-30T10:34:00;4.78;;;1.00;;
27163;SDS011;14685;50.618;7.024;2022-09-30T10:36:40;1.73;;;1.00;;
27163;SDS011;14685;50.618;7.024;2022-09-30T10:41:48;3.03;;;0.95;;
27163;SDS011;14685;50.618;7.024;2022-09-30T10:44:18;2.45;;;1.10;;
27163;SDS011;14685;50.618;7.024;2022-09-30T10:46:48;4.22;;;1.00;;
27163;SDS011;14685;50.618;7.024;2022-09-30T10:49:22;2.03;;;1.23;;
27163;SDS011;14685;50.618;7.024;2022-09-30T10:52:01;3.25;;;1.08;;
27163;SDS011;14685;50.618;7.024;2022-09-30T10:54:33;1.80;;;1.02;;
27163;SDS011;14685;50.618;7.024;2022-09-30T10:59:43;0.90;;;0.90;;
27163;SDS011;14685;50.618;7.024;2022-09-30T11:07:50;3.08;;;1.25;;
27163;SDS011;14685;50.618;7.024;2022-09-30T11:18:49;2.17;;;0.90;;
27163;SDS011;14685;50.618;7.024;2022-09-30T11:21:25;2.22;;;1.08;;
27163;SDS011;14685;50.618;7.024;2022-09-30T11:23:59;1.65;;;0.90;;
27163;SDS011;14685;50.618;7.024;2022-09-30T11:29:26;1.63;;;0.85;;
27163;SDS011;14685;50.618;7.024;2022-09-30T11:31:57;1.58;;;0.82;;
27163;SDS011;14685;50.618;7.024;2022-09-30T11:40:23;1.67;;;0.90;;
27163;SDS011;14685;50.618;7.024;2022-09-30T11:45:52;2.67;;;0.88;;
27163;SDS011;14685;50.618;7.024;2022-09-30T11:57:12;1.90;;;0.93;;
27163;SDS011;14685;50.618;7.024;2022-09-30T11:59:48;3.90;;;1.00;;
27163;SDS011;14685;50.618;7.024;2022-09-30T12:04:55;0.83;;;0.67;;
27163;SDS011;14685;50.618;7.024;2022-09-30T12:07:39;4.80;;;1.25;;
27163;SDS011;14685;50.618;7.024;2022-09-30T12:13:05;2.30;;;0.90;;
27163;SDS011;14685;50.618;7.024;2022-09-30T12:15:41;2.25;;;0.90;;
27163;SDS011;14685;50.618;7.024;2022-09-30T12:18:10;1.48;;;0.80;;
27163;SDS011;14685;50.618;7.024;2022-09-30T12:25:57;0.60;;;0.60;;
27163;SDS011;14685;50.618;7.024;2022-09-30T12:28:27;0.85;;;0.70;;
27163;SDS011;14685;50.618;7.024;2022-09-30T12:31:26;2.65;;;0.63;;
27163;SDS011;14685;50.618;7.024;2022-09-30T12:36:40;0.88;;;0.70;;
27163;SDS011;14685;50.618;7.024;2022-09-30T12:39:23;1.75;;;0.75;;
27163;SDS011;14685;50.618;7.024;2022-09-30T12:42:18;0.88;;;0.70;;
27163;SDS011;14685;50.618;7.024;2022-09-30T12:45:01;1.23;;;0.85;;
27163;SDS011;14685;50.618;7.024;2022-09-30T12:47:54;1.45;;;0.82;;
27163;SDS011;14685;50.618;7.024;2022-09-30T12:50:28;2.75;;;0.90;;
27163;SDS011;14685;50.618;7.024;2022-09-30T12:53:08;1.70;;;0.90;;
27163;SDS011;14685;50.618;7.024;2022-09-30T12:55:44;1.95;;;1.25;;
27163;SDS011;14685;50.618;7.024;2022-09-30T12:58:47;1.15;;;0.90;;
27163;SDS011;14685;50.618;7.024;2022-09-30T13:01:28;1.63;;;0.85;;
27163;SDS011;14685;50.618;7.024;2022-09-30T13:07:11;5.28;;;0.80;;
27163;SDS011;14685;50.618;7.024;2022-09-30T13:11:43;1.50;;;0.75;;
27163;SDS011;14685;50.618;7.024;2022-09-30T13:19:44;3.05;;;0.70;;
27163;SDS011;14685;50.618;7.024;2022-09-30T13:27:36;3.28;;;1.02;;
27163;SDS011;14685;50.618;7.024;2022-09-30T13:33:04;0.75;;;0.60;;
27163;SDS011;14685;50.618;7.024;2022-09-30T13:35:51;2.90;;;0.80;;
27163;SDS011;14685;50.618;7.024;2022-09-30T13:38:32;2.10;;;0.93;;
27163;SDS011;14685;50.618;7.024;2022-09-30T13:41:06;1.75;;;0.70;;
27163;SDS011;14685;50.618;7.024;2022-09-30T13:43:42;3.00;;;0.80;;
27163;SDS011;14685;50.618;7.024;2022-09-30T13:48:46;4.80;;;0.70;;
27163;SDS011;14685;50.618;7.024;2022-09-30T13:51:17;2.08;;;0.82;;
27163;SDS011;14685;50.618;7.024;2022-09-30T13:53:51;2.30;;;0.80;;
27163;SDS011;14685;50.618;7.024;2022-09-30T13:56:25;3.72;;;1.10;;
27163;SDS011;14685;50.618;7.024;2022-09-30T13:59:05;2.05;;;0.90;;
27163;SDS011;14685;50.618;7.024;2022-09-30T14:05:32;2.15;;;0.77;;
27163;SDS011;14685;50.618;7.024;2022-09-30T14:13:53;1.27;;;0.80;;
27163;SDS011;14685;50.618;7.024;2022-09-30T14:21:53;5.07;;;0.80;;
27163;SDS011;14685;50.618;7.024;2022-09-30T14:24:24;3.47;;;0.90;;
27163;SDS011;14685;50.618;7.024;2022-09-30T14:32:53;3.17;;;0.88;;
27163;SDS011;14685;50.618;7.024;2022-09-30T14:35:38;1.13;;;0.80;;
27163;SDS011;14685;50.618;7.024;2022-09-30T14:38:14;3.10;;;0.88;;
27163;SDS011;14685;50.618;7.024;2022-09-30T14:40:51;0.82;;;0.75;;
27163;SDS011;14685;50.618;7.024;2022-09-30T14:43:21;0.95;;;0.80;;
27163;SDS011;14685;50.618;7.024;2022-09-30T14:46:05;1.50;;;0.70;;
27163;SDS011;14685;50.618;7.024;2022-09-30T14:48:36;3.53;;;0.90;;
27163;SDS011;14685;50.618;7.024;2022-09-30T14:51:08;0.95;;;0.70;;
27163;SDS011;14685;50.618;7.024;2022-09-30T14:53:50;1.38;;;1.08;;
27163;SDS011;14685;50.618;7.024;2022-09-30T14:56:19;2.60;;;0.90;;
27163;SDS011;14685;50.618;7.024;2022-09-30T14:58:56;1.35;;;0.80;;
27163;SDS011;14685;50.618;7.024;2022-09-30T15:01:29;1.63;;;0.90;;
27163;SDS011;14685;50.618;7.024;2022-09-30T15:04:02;3.45;;;0.85;;
27163;SDS011;14685;50.618;7.024;2022-09-30T15:06:47;1.23;;;0.70;;
27163;SDS011;14685;50.618;7.024;2022-09-30T15:09:27;2.30;;;0.70;;
27163;SDS011;14685;50.618;7.024;2022-09-30T15:14:57;1.00;;;0.80;;
27163;SDS011;14685;50.618;7.024;2022-09-30T15:17:26;1.00;;;0.70;;
27163;SDS011;14685;50.618;7.024;2022-09-30T15:20:25;1.13;;;0.80;;
27163;SDS011;14685;50.618;7.024;2022-09-30T15:23:00;0.85;;;0.80;;
27163;SDS011;14685;50.618;7.024;2022-09-30T15:25:32;0.65;;;0.60;;
27163;SDS011;14685;50.618;7.024;2022-09-30T15:28:02;0.70;;;0.70;;
27163;SDS011;14685;50.618;7.024;2022-09-30T15:30:32;1.67;;;0.80;;
27163;SDS011;14685;50.618;7.024;2022-09-30T15:33:02;1.33;;;0.80;;
27163;SDS011;14685;50.618;7.024;2022-09-30T15:35:31;1.38;;;0.77;;
27163;SDS011;14685;50.618;7.024;2022-09-30T15:38:22;1.80;;;1.00;;
27163;SDS011;14685;50.618;7.024;2022-09-30T15:40:56;2.13;;;0.75;;
27163;SDS011;14685;50.618;7.024;2022-09-30T15:43:31;1.77;;;0.90;;
27163;SDS011;14685;50.618;7.024;2022-09-30T15:48:54;1.67;;;1.00;;
27163;SDS011;14685;50.618;7.024;2022-09-30T15:51:24;0.93;;;0.70;;
27163;SDS011;14685;50.618;7.024;2022-09-30T15:53:54;3.45;;;0.90;;
27163;SDS011;14685;50.618;7.024;2022-09-30T15:56:30;1.23;;;0.60;;
27163;SDS011;14685;50.618;7.024;2022-09-30T15:59:10;1.27;;;0.85;;
27163;SDS011;14685;50.618;7.024;2022-09-30T16:01:42;2.05;;;0.70;;
27163;SDS011;14685;50.618;7.024;2022-09-30T16:09:28;1.20;;;0.70;;
27163;SDS011;14685;50.618;7.024;2022-09-30T16:14:44;1.23;;;0.70;;
27163;SDS011;14685;50.618;7.024;2022-09-30T16:17:26;1.67;;;0.80;;
27163;SDS011;14685;50.618;7.024;2022-09-30T16:19:59;1.48;;;0.85;;
27163;SDS011;14685;50.618;7.024;2022-09-30T16:22:34;1.35;;;0.73;;
27163;SDS011;14685;50.618;7.024;2022-09-30T16:27:55;1.88;;;0.80;;
27163;SDS011;14685;50.618;7.024;2022-09-30T16:30:46;1.40;;;0.63;;
27163;SDS011;14685;50.618;7.024;2022-09-30T16:33:16;1.70;;;0.70;;
27163;SDS011;14685;50.618;7.024;2022-09-30T16:35:43;0.80;;;0.80;;
27163;SDS011;14685;50.618;7.024;2022-09-30T16:38:13;2.70;;;0.88;;
27163;SDS011;14685;50.618;7.024;2022-09-30T16:40:41;2.38;;;1.02;;
27163;SDS011;14685;50.618;7.024;2022-09-30T16:43:08;1.85;;;0.90;;
27163;SDS011;14685;50.618;7.024;2022-09-30T16:45:38;1.05;;;0.90;;
27163;SDS011;14685;50.618;7.024;2022-09-30T16:48:15;1.85;;;1.10;;
27163;SDS011;14685;50.618;7.024;2022-09-30T16:50:52;0.93;;;0.93;;
27163;SDS011;14685;50.618;7.024;2022-09-30T16:53:28;3.92;;;0.82;;
27163;SDS011;14685;50.618;7.024;2022-09-30T16:55:55;1.45;;;0.90;;
27163;SDS011;14685;50.618;7.024;2022-09-30T16:58:24;2.35;;;0.98;;
27163;SDS011;14685;50.618;7.024;2022-09-30T17:00:50;3.42;;;1.30;;
27163;SDS011;14685;50.618;7.024;2022-09-30T17:03:17;0.80;;;0.80;;
27163;SDS011;14685;50.618;7.024;2022-09-30T17:05:47;1.10;;;0.98;;
27163;SDS011;14685;50.618;7.024;2022-09-30T17:08:18;1.95;;;0.95;;
27163;SDS011;14685;50.618;7.024;2022-09-30T17:10:46;1.45;;;0.90;;
27163;SDS011;14685;50.618;7.024;2022-09-30T17:13:18;2.30;;;1.00;;
27163;SDS011;14685;50.618;7.024;2022-09-30T17:15:48;2.88;;;0.90;;
27163;SDS011;14685;50.618;7.024;2022-09-30T17:18:17;2.60;;;1.00;;
27163;SDS011;14685;50.618;7.024;2022-09-30T17:20:46;1.83;;;1.20;;
27163;SDS011;14685;50.618;7.024;2022-09-30T17:23:21;5.43;;;1.40;;
27163;SDS011;14685;50.618;7.024;2022-09-30T17:25:51;3.22;;;1.30;;
27163;SDS011;14685;50.618;7.024;2022-09-30T17:28:19;2.33;;;1.38;;
27163;SDS011;14685;50.618;7.024;2022-09-30T17:30:47;2.58;;;1.25;;
27163;SDS011;14685;50.618;7.024;2022-09-30T17:33:16;2.92;;;1.40;;
27163;SDS011;14685;50.618;7.024;2022-09-30T17:35:55;5.07;;;1.50;;
27163;SDS011;14685;50.618;7.024;2022-09-30T17:38:24;2.60;;;1.98;;
27163;SDS011;14685;50.618;7.024;2022-09-30T17:40:51;2.75;;;1.50;;
27163;SDS011;14685;50.618;7.024;2022-09-30T17:43:37;2.42;;;1.20;;
27163;SDS011;14685;50.618;7.024;2022-09-30T17:46:04;1.63;;;1.52;;
27163;SDS011;14685;50.618;7.024;2022-09-30T17:48:31;1.73;;;1.02;;
27163;SDS011;14685;50.618;7.024;2022-09-30T17:50:58;1.98;;;1.40;;
27163;SDS011;14685;50.618;7.024;2022-09-30T17:53:25;1.85;;;1.23;;
27163;SDS011;14685;50.618;7.024;2022-09-30T17:56:03;1.77;;;1.27;;
27163;SDS011;14685;50.618;7.024;2022-09-30T17:58:35;4.07;;;1.42;;
27163;SDS011;14685;50.618;7.024;2022-09-30T18:01:06;1.13;;;1.02;;
27163;SDS011;14685;50.618;7.024;2022-09-30T18:03:36;4.72;;;1.35;;
27163;SDS011;14685;50.618;7.024;2022-09-30T18:06:03;1.23;;;1.05;;
27163;SDS011;14685;50.618;7.024;2022-09-30T18:08:31;2.33;;;1.60;;
27163;SDS011;14685;50.618;7.024;2022-09-30T18:11:00;2.25;;;1.38;;
27163;SDS011;14685;50.618;7.024;2022-09-30T18:13:26;4.53;;;1.88;;
27163;SDS011;14685;50.618;7.024;2022-09-30T18:15:54;2.97;;;1.58;;
27163;SDS011;14685;50.618;7.024;2022-09-30T18:18:21;2.55;;;1.75;;
27163;SDS011;14685;50.618;7.024;2022-09-30T18:20:48;4.18;;;1.80;;
27163;SDS011;14685;50.618;7.024;2022-09-30T18:23:16;2.55;;;1.83;;
27163;SDS011;14685;50.618;7.024;2022-09-30T18:25:46;3.38;;;1.90;;
27163;SDS011;14685;50.618;7.024;2022-09-30T18:28:15;7.05;;;1.85;;
27163;SDS011;14685;50.618;7.024;2022-09-30T18:30:43;3.95;;;2.10;;
27163;SDS011;14685;50.618;7.024;2022-09-30T18:33:11;3.35;;;2.08;;
27163;SDS011;14685;50.618;7.024;2022-09-30T18:35:48;5.10;;;2.08;;
27163;SDS011;14685;50.618;7.024;2022-09-30T18:38:16;2.33;;;1.98;;
27163;SDS011;14685;50.618;7.024;2022-09-30T18:40:45;3.35;;;2.13;;
27163;SDS011;14685;50.618;7.024;2022-09-30T18:43:12;4.13;;;2.25;;
27163;SDS011;14685;50.618;7.024;2022-09-30T18:45:39;4.65;;;2.10;;
27163;SDS011;14685;50.618;7.024;2022-09-30T18:48:11;2.22;;;1.60;;
27163;SDS011;14685;50.618;7.024;2022-09-30T18:50:39;5.07;;;1.63;;
27163;SDS011;14685;50.618;7.024;2022-09-30T18:53:08;2.22;;;1.70;;
27163;SDS011;14685;50.618;7.024;2022-09-30T18:55:37;4.20;;;1.70;;